createdAt,value
2019-03-26T00:01:53.024Z,24.05
2019-03-26T00:04:23.300Z,26.02
2019-03-26T00:06:54.248Z,23.00
2019-03-26T00:09:23.987Z,19.87
2019-03-26T00:11:53.964Z,26.95
2019-03-26T00:14:23.899Z,28.02
2019-03-26T00:16:53.784Z,27.82
2019-03-26T00:19:27.189Z,40.67
2019-03-26T00:21:57.861Z,28.38
2019-03-26T00:24:27.724Z,39.60
2019-03-26T00:26:57.840Z,26.62
2019-03-26T00:29:27.888Z,40.15
2019-03-26T00:31:57.752Z,30.32
2019-03-26T00:34:27.629Z,27.35
2019-03-26T00:36:57.566Z,22.93
2019-03-26T00:39:27.910Z,28.80
2019-03-26T00:41:57.775Z,23.05
2019-03-26T00:44:27.840Z,22.93
2019-03-26T00:46:57.884Z,20.65
2019-03-26T00:49:27.830Z,29.98
2019-03-26T00:51:57.693Z,27.42
2019-03-26T00:54:27.595Z,24.90
2019-03-26T00:56:57.484Z,21.40
2019-03-26T00:59:27.408Z,21.60
2019-03-26T01:01:57.284Z,23.45
2019-03-26T01:04:32.780Z,24.60
2019-03-26T01:06:58.620Z,24.17
2019-03-26T01:09:28.524Z,30.08
2019-03-26T01:11:59.579Z,20.90
2019-03-26T01:14:29.180Z,22.35
2019-03-26T01:16:59.107Z,22.62
2019-03-26T01:19:29.049Z,23.60
2019-03-26T01:21:58.917Z,23.12
2019-03-26T01:24:28.816Z,28.52
2019-03-26T01:26:58.705Z,24.15
2019-03-26T01:29:28.633Z,27.45
2019-03-26T01:31:58.509Z,31.25
2019-03-26T01:34:28.440Z,23.42
2019-03-26T01:36:58.321Z,18.80
2019-03-26T01:39:28.226Z,23.55
2019-03-26T01:41:58.095Z,23.07
2019-03-26T01:44:27.685Z,28.37
2019-03-26T01:46:57.728Z,19.40
2019-03-26T01:49:27.594Z,22.62
2019-03-26T01:51:57.496Z,29.15
2019-03-26T01:54:27.386Z,22.05
2019-03-26T01:56:57.284Z,23.38
2019-03-26T01:59:27.253Z,23.25
2019-03-26T02:01:57.195Z,24.57
2019-03-26T02:04:27.440Z,27.25
2019-03-26T02:06:57.401Z,22.17
2019-03-26T02:09:27.301Z,24.87
2019-03-26T02:11:57.241Z,22.60
2019-03-26T02:14:27.142Z,23.05
2019-03-26T02:16:57.054Z,20.10
2019-03-26T02:19:26.914Z,18.80
2019-03-26T02:21:56.903Z,16.40
2019-03-26T02:24:26.818Z,20.40
2019-03-26T02:26:56.665Z,17.12
2019-03-26T02:29:26.563Z,14.38
2019-03-26T02:31:56.410Z,8.33
2019-03-26T02:34:26.295Z,7.03
2019-03-26T02:36:56.268Z,13.45
2019-03-26T02:39:26.161Z,8.98
2019-03-26T02:41:56.007Z,9.23
2019-03-26T02:44:25.871Z,9.48
2019-03-26T02:46:55.748Z,14.07
2019-03-26T02:49:26.465Z,8.38
2019-03-26T02:51:56.019Z,10.20
2019-03-26T02:54:25.902Z,5.85
2019-03-26T02:56:55.767Z,8.68
2019-03-26T02:59:26.320Z,9.40
2019-03-26T03:01:56.243Z,7.67
2019-03-26T03:04:27.212Z,12.88
2019-03-26T03:06:57.111Z,12.90
2019-03-26T03:09:27.688Z,7.37
2019-03-26T03:11:57.602Z,14.65
2019-03-26T03:14:28.489Z,7.53
2019-03-26T03:16:58.124Z,8.08
2019-03-26T03:19:28.267Z,8.73
2019-03-26T03:21:58.611Z,8.55
2019-03-26T03:24:28.480Z,10.88
2019-03-26T03:26:58.420Z,7.70
2019-03-26T03:29:28.220Z,7.42
2019-03-26T03:31:58.506Z,7.30
2019-03-26T03:34:28.331Z,3.12
2019-03-26T03:36:58.231Z,11.48
2019-03-26T03:39:28.068Z,14.18
2019-03-26T03:41:57.936Z,9.10
2019-03-26T03:44:27.803Z,6.35
2019-03-26T03:46:57.643Z,5.47
2019-03-26T03:49:28.996Z,7.78
2019-03-26T03:51:58.284Z,7.05
2019-03-26T03:54:28.139Z,8.95
2019-03-26T03:56:59.062Z,8.63
2019-03-26T03:59:28.931Z,18.25
2019-03-26T04:01:59.543Z,10.53
2019-03-26T04:04:29.679Z,10.63
2019-03-26T04:06:59.580Z,13.50
2019-03-26T04:09:29.755Z,15.48
2019-03-26T04:11:59.728Z,17.55
2019-03-26T04:14:29.576Z,14.63
2019-03-26T04:16:59.499Z,11.12
2019-03-26T04:19:29.334Z,16.23
2019-03-26T04:21:59.235Z,16.07
2019-03-26T04:24:29.080Z,11.75
2019-03-26T04:26:59.003Z,12.50
2019-03-26T04:29:28.837Z,13.18
2019-03-26T04:31:58.804Z,14.00
2019-03-26T04:34:28.679Z,10.40
2019-03-26T04:36:58.536Z,12.23
2019-03-26T04:39:28.419Z,17.60
2019-03-26T04:41:58.280Z,14.33
2019-03-26T04:44:28.206Z,30.70
2019-03-26T04:46:58.125Z,22.30
2019-03-26T04:49:28.073Z,21.93
2019-03-26T04:51:58.447Z,23.95
2019-03-26T04:54:28.347Z,28.57
2019-03-26T04:56:58.190Z,21.68
2019-03-26T04:59:28.101Z,37.48
2019-03-26T05:01:58.270Z,39.27
2019-03-26T05:04:28.111Z,39.55
2019-03-26T05:06:57.998Z,36.25
2019-03-26T05:09:27.858Z,41.35
2019-03-26T05:11:57.747Z,33.05
2019-03-26T05:14:27.601Z,25.82
2019-03-26T05:16:57.494Z,21.40
2019-03-26T05:19:28.043Z,24.45
2019-03-26T05:21:58.316Z,25.88
2019-03-26T05:24:28.153Z,17.40
2019-03-26T05:26:58.051Z,20.37
2019-03-26T05:29:27.896Z,23.42
2019-03-26T05:31:57.798Z,20.88
2019-03-26T05:34:27.643Z,20.40
2019-03-26T05:36:57.550Z,21.52
2019-03-26T05:39:27.395Z,24.25
2019-03-26T05:41:57.730Z,19.00
2019-03-26T05:44:27.952Z,19.20
2019-03-26T05:46:57.851Z,16.87
2019-03-26T05:49:28.082Z,14.28
2019-03-26T05:51:57.976Z,18.92
2019-03-26T05:54:28.094Z,21.62
2019-03-26T05:56:57.995Z,23.92
2019-03-26T05:59:27.850Z,20.92
2019-03-26T06:01:57.773Z,12.90
2019-03-26T06:04:27.606Z,20.80
2019-03-26T06:07:04.656Z,18.12
2019-03-26T06:11:56.924Z,22.67
2019-03-26T06:14:26.838Z,17.27
2019-03-26T06:16:57.515Z,13.78
2019-03-26T06:19:27.420Z,18.95
2019-03-26T06:21:57.281Z,18.62
2019-03-26T06:24:27.512Z,24.27
2019-03-26T06:26:57.406Z,22.07
2019-03-26T06:29:27.277Z,20.48
2019-03-26T06:31:57.144Z,26.30
2019-03-26T06:34:27.021Z,20.95
2019-03-26T06:36:56.894Z,27.25
2019-03-26T06:39:27.103Z,29.75
2019-03-26T06:41:57.025Z,27.67
2019-03-26T06:44:26.900Z,29.48
2019-03-26T06:46:56.797Z,19.48
2019-03-26T06:49:26.650Z,22.77
2019-03-26T06:51:56.544Z,25.30
2019-03-26T06:54:26.788Z,17.75
2019-03-26T06:56:58.266Z,27.55
2019-03-26T07:01:56.054Z,18.20
2019-03-26T07:04:26.344Z,18.20
2019-03-26T07:06:57.837Z,35.25
2019-03-26T07:11:55.628Z,22.65
2019-03-26T07:14:25.520Z,11.18
2019-03-26T07:16:55.408Z,17.17
2019-03-26T07:19:28.349Z,19.20
2019-03-26T07:21:58.262Z,14.13
2019-03-26T07:24:28.530Z,16.75
2019-03-26T07:26:58.453Z,18.25
2019-03-26T07:29:28.299Z,19.02
2019-03-26T07:31:58.199Z,23.32
2019-03-26T07:34:28.295Z,29.95
2019-03-26T07:36:58.200Z,31.97
2019-03-26T07:39:28.061Z,25.15
2019-03-26T07:41:57.962Z,23.27
2019-03-26T07:44:27.818Z,25.35
2019-03-26T07:46:57.709Z,14.95
2019-03-26T07:49:27.963Z,17.32
2019-03-26T07:51:57.816Z,17.67
2019-03-26T07:54:27.742Z,15.38
2019-03-26T07:56:57.591Z,19.70
2019-03-26T07:59:28.199Z,20.68
2019-03-26T08:01:57.853Z,25.03
2019-03-26T08:04:27.747Z,24.82
2019-03-26T08:06:57.659Z,18.32
2019-03-26T08:09:27.536Z,28.57
2019-03-26T08:11:57.931Z,26.12
2019-03-26T08:14:28.605Z,17.00
2019-03-26T08:16:58.455Z,20.75
2019-03-26T08:19:28.387Z,27.00
2019-03-26T08:21:58.183Z,21.37
2019-03-26T08:24:28.836Z,18.67
2019-03-26T08:26:58.752Z,28.90
2019-03-26T08:29:28.604Z,23.30
2019-03-26T08:31:59.466Z,9.10
2019-03-26T08:34:29.400Z,14.18
2019-03-26T08:36:59.253Z,20.97
2019-03-26T08:39:29.086Z,13.55
2019-03-26T08:41:58.992Z,15.98
2019-03-26T08:44:28.851Z,18.57
2019-03-26T08:46:58.691Z,18.95
2019-03-26T08:49:30.846Z,10.18
2019-03-26T08:54:28.004Z,12.28
2019-03-26T08:56:57.914Z,15.88
2019-03-26T08:59:27.756Z,15.18
2019-03-26T09:01:58.467Z,17.60
2019-03-26T09:04:28.434Z,17.92
2019-03-26T09:06:58.322Z,16.52
2019-03-26T09:09:28.160Z,15.50
2019-03-26T09:11:58.094Z,17.12
2019-03-26T09:14:27.936Z,17.70
2019-03-26T09:16:57.789Z,13.35
2019-03-26T09:19:27.707Z,16.40
2019-03-26T09:21:57.541Z,16.73
2019-03-26T09:24:27.388Z,12.78
2019-03-26T09:26:57.814Z,16.48
2019-03-26T09:29:27.780Z,21.25
2019-03-26T09:31:57.642Z,24.77
2019-03-26T09:34:27.563Z,24.23
2019-03-26T09:36:57.408Z,24.92
2019-03-26T09:39:27.260Z,24.92
2019-03-26T09:41:57.163Z,25.25
2019-03-26T09:44:27.032Z,26.97
2019-03-26T09:46:56.942Z,28.47
2019-03-26T09:49:26.800Z,22.65
2019-03-26T09:51:56.995Z,29.67
2019-03-26T09:54:26.910Z,28.80
2019-03-26T09:56:56.945Z,29.67
2019-03-26T09:59:26.980Z,27.20
2019-03-26T10:01:57.202Z,28.57
2019-03-26T10:04:28.305Z,40.78
2019-03-26T10:06:58.053Z,37.35
2019-03-26T10:09:28.196Z,23.50
2019-03-26T10:11:58.170Z,21.87
2019-03-26T10:14:28.390Z,36.70
2019-03-26T10:16:59.962Z,32.03
2019-03-26T10:19:30.408Z,34.67
2019-03-26T10:22:00.622Z,37.55
2019-03-26T10:24:30.901Z,37.42
2019-03-26T10:27:01.363Z,41.50
2019-03-26T10:29:32.213Z,39.92
2019-03-26T10:32:01.896Z,45.55
2019-03-26T10:34:31.767Z,45.85
2019-03-26T10:37:01.887Z,44.08
2019-03-26T10:39:31.872Z,44.00
2019-03-26T10:42:02.265Z,55.70
2019-03-26T10:44:32.534Z,45.48
2019-03-26T10:47:02.459Z,45.88
2019-03-26T10:49:32.324Z,63.55
2019-03-26T10:52:02.291Z,49.95
2019-03-26T10:54:32.343Z,56.33
2019-03-26T10:57:02.238Z,51.88
2019-03-26T10:59:32.096Z,49.77
2019-03-26T11:02:02.098Z,57.75
2019-03-26T11:04:32.659Z,54.65
2019-03-26T11:07:04.260Z,36.90
2019-03-26T11:12:02.024Z,48.48
2019-03-26T11:14:32.033Z,51.45
2019-03-26T11:17:01.885Z,50.03
2019-03-26T11:19:31.848Z,51.77
2019-03-26T11:22:02.801Z,44.10
2019-03-26T11:24:32.454Z,50.08
2019-03-26T11:27:02.720Z,46.88
2019-03-26T11:29:33.692Z,56.00
2019-03-26T11:32:04.238Z,35.80
2019-03-26T11:34:33.923Z,48.83
2019-03-26T11:37:03.786Z,55.45
2019-03-26T11:39:33.691Z,69.82
2019-03-26T11:42:03.590Z,81.08
2019-03-26T11:44:33.552Z,72.45
2019-03-26T11:47:03.471Z,55.58
2019-03-26T11:49:33.396Z,56.70
2019-03-26T11:52:03.359Z,53.38
2019-03-26T11:54:33.318Z,58.92
2019-03-26T11:57:03.186Z,50.78
2019-03-26T11:59:33.070Z,50.05
2019-03-26T12:02:02.950Z,57.30
2019-03-26T12:04:32.832Z,52.43
2019-03-26T12:07:02.888Z,57.88
2019-03-26T12:09:45.188Z,46.33
2019-03-26T12:12:03.761Z,47.70
2019-03-26T12:14:33.602Z,55.33
2019-03-26T12:17:03.872Z,62.38
2019-03-26T12:19:33.726Z,50.75
2019-03-26T12:22:03.662Z,51.68
2019-03-26T12:24:33.518Z,46.60
2019-03-26T12:27:04.048Z,51.08
2019-03-26T12:29:33.902Z,26.42
2019-03-26T12:32:03.813Z,41.60
2019-03-26T12:34:33.667Z,71.12
2019-03-26T12:37:03.548Z,52.43
2019-03-26T12:39:33.440Z,38.85
2019-03-26T12:42:03.360Z,50.35
2019-03-26T12:44:33.220Z,55.70
2019-03-26T12:47:03.154Z,59.88
2019-03-26T12:49:33.007Z,46.05
2019-03-26T12:52:02.928Z,49.42
2019-03-26T12:54:32.783Z,38.38
2019-03-26T12:57:02.692Z,42.27
2019-03-26T12:59:32.591Z,38.17
2019-03-26T13:02:02.844Z,75.60
2019-03-26T13:04:32.794Z,44.95
2019-03-26T13:07:02.660Z,42.85
2019-03-26T13:09:32.582Z,143.55
2019-03-26T13:12:02.430Z,33.65
2019-03-26T13:14:32.298Z,30.17
2019-03-26T13:17:03.251Z,23.62
2019-03-26T13:19:33.966Z,23.30
2019-03-26T13:22:03.831Z,75.70
2019-03-26T13:24:33.756Z,68.55
2019-03-26T13:27:04.041Z,43.63
2019-03-26T13:29:33.980Z,55.90
2019-03-26T13:32:03.844Z,52.95
2019-03-26T13:34:33.857Z,59.63
2019-03-26T13:37:03.709Z,49.13
2019-03-26T13:39:33.620Z,29.80
2019-03-26T13:42:03.579Z,36.63
2019-03-26T13:44:33.514Z,72.95
2019-03-26T13:47:03.771Z,38.90
2019-03-26T13:49:33.696Z,35.35
2019-03-26T13:52:03.559Z,36.68
2019-03-26T13:54:33.474Z,40.35
2019-03-26T13:57:03.323Z,40.35
2019-03-26T13:59:33.187Z,43.75
2019-03-26T14:02:03.064Z,51.25
2019-03-26T14:04:32.924Z,62.33
2019-03-26T14:07:02.844Z,69.03
2019-03-26T14:09:36.172Z,44.40
2019-03-26T14:12:06.096Z,88.97
2019-03-26T14:14:35.931Z,61.15
2019-03-26T14:17:05.902Z,79.32
2019-03-26T14:19:35.805Z,99.07
2019-03-26T14:22:05.711Z,65.45
2019-03-26T14:24:35.592Z,70.87
2019-03-26T14:27:05.475Z,67.82
2019-03-26T14:29:35.355Z,46.10
2019-03-26T14:32:05.275Z,152.02
2019-03-26T14:34:35.234Z,85.50
2019-03-26T14:37:05.078Z,60.48
2019-03-26T14:39:35.039Z,74.75
2019-03-26T14:42:04.906Z,53.68
2019-03-26T14:44:34.848Z,459.45
2019-03-26T14:47:04.729Z,416.75
2019-03-26T14:49:34.661Z,389.27
2019-03-26T14:52:04.542Z,261.05
2019-03-26T14:54:34.841Z,592.17
2019-03-26T14:57:04.767Z,485.23
2019-03-26T14:59:35.684Z,1073.18
2019-03-26T15:02:06.580Z,571.60
2019-03-26T15:04:36.514Z,313.60
2019-03-26T15:07:06.394Z,141.03
2019-03-26T15:09:36.631Z,126.95
2019-03-26T15:12:06.500Z,117.42
2019-03-26T15:14:36.414Z,70.62
2019-03-26T15:17:06.974Z,46.20
2019-03-26T15:19:36.938Z,44.95
2019-03-26T15:22:06.799Z,57.78
2019-03-26T15:24:36.709Z,37.70
2019-03-26T15:27:06.563Z,32.08
2019-03-26T15:29:37.003Z,36.15
2019-03-26T15:32:07.147Z,89.15
2019-03-26T15:34:37.069Z,55.03
2019-03-26T15:37:07.273Z,64.00
2019-03-26T15:39:37.178Z,55.20
2019-03-26T15:42:07.025Z,52.33
2019-03-26T15:44:36.903Z,70.28
2019-03-26T15:47:07.138Z,73.72
2019-03-26T15:49:36.994Z,70.22
2019-03-26T15:52:06.894Z,38.45
2019-03-26T15:54:36.762Z,62.10
2019-03-26T15:57:06.666Z,48.45
2019-03-26T15:59:36.527Z,87.33
2019-03-26T16:02:06.431Z,53.15
2019-03-26T16:04:36.286Z,60.78
2019-03-26T16:07:06.206Z,64.62
2019-03-26T16:09:36.059Z,173.55
2019-03-26T16:12:05.934Z,64.27
2019-03-26T16:14:35.819Z,56.75
2019-03-26T16:17:06.395Z,77.78
2019-03-26T16:19:36.790Z,46.23
2019-03-26T16:22:06.667Z,56.18
2019-03-26T16:24:36.602Z,192.82
2019-03-26T16:27:06.455Z,87.22
2019-03-26T16:29:36.367Z,75.97
2019-03-26T16:32:06.210Z,77.58
2019-03-26T16:34:36.094Z,95.92
2019-03-26T16:37:05.975Z,57.08
2019-03-26T16:39:35.832Z,131.95
2019-03-26T16:42:05.847Z,86.02
2019-03-26T16:44:35.690Z,161.73
2019-03-26T16:47:05.602Z,110.75
2019-03-26T16:49:35.751Z,181.70
2019-03-26T16:52:05.674Z,227.80
2019-03-26T16:54:35.538Z,164.20
2019-03-26T16:57:05.462Z,127.80
2019-03-26T16:59:35.322Z,65.83
2019-03-26T17:02:05.239Z,66.33
2019-03-26T17:04:35.099Z,43.85
2019-03-26T17:07:05.014Z,31.87
2019-03-26T17:09:35.571Z,50.12
2019-03-26T17:12:06.172Z,55.40
2019-03-26T17:14:35.434Z,48.87
2019-03-26T17:17:05.490Z,49.05
2019-03-26T17:19:35.362Z,93.35
2019-03-26T17:22:06.259Z,69.37
2019-03-26T17:24:35.846Z,54.50
2019-03-26T17:27:06.086Z,45.95
2019-03-26T17:29:35.943Z,44.03
2019-03-26T17:32:05.847Z,71.62
2019-03-26T17:34:35.698Z,49.53
2019-03-26T17:37:05.598Z,47.83
2019-03-26T17:39:35.546Z,45.03
2019-03-26T17:42:16.479Z,30.62
2019-03-26T17:44:37.331Z,24.72
2019-03-26T17:47:07.287Z,55.52
2019-03-26T17:49:38.718Z,54.90
2019-03-26T17:54:36.628Z,52.13
2019-03-26T17:57:06.531Z,53.63
2019-03-26T17:59:36.446Z,417.30
2019-03-26T18:02:06.326Z,491.35
2019-03-26T18:04:36.552Z,580.13
2019-03-26T18:07:06.521Z,156.02
2019-03-26T18:09:36.444Z,46.18
2019-03-26T18:12:06.598Z,77.80
2019-03-26T18:14:36.518Z,149.05
2019-03-26T18:17:06.377Z,86.28
2019-03-26T18:19:36.603Z,57.80
2019-03-26T18:22:06.571Z,66.22
2019-03-26T18:24:36.478Z,52.23
2019-03-26T18:27:06.348Z,35.33
2019-03-26T18:29:36.272Z,35.73
2019-03-26T18:32:06.788Z,35.70
2019-03-26T18:34:36.529Z,39.70
2019-03-26T18:37:06.419Z,30.72
2019-03-26T18:39:36.302Z,36.68
2019-03-26T18:42:06.222Z,35.40
2019-03-26T18:44:36.506Z,31.27
2019-03-26T18:47:06.363Z,39.58
2019-03-26T18:49:36.612Z,34.53
2019-03-26T18:52:06.456Z,30.65
2019-03-26T18:54:36.464Z,35.55
2019-03-26T18:59:35.840Z,47.13
2019-03-26T19:02:05.791Z,32.78
2019-03-26T19:04:35.756Z,51.45
2019-03-26T19:07:06.310Z,59.30
2019-03-26T19:09:36.234Z,34.88
2019-03-26T19:12:06.470Z,44.45
2019-03-26T19:14:37.018Z,67.95
2019-03-26T19:17:06.301Z,60.93
2019-03-26T19:19:36.199Z,68.28
2019-03-26T19:22:06.082Z,41.92
2019-03-26T19:24:36.013Z,62.67
2019-03-26T19:27:05.880Z,70.52
2019-03-26T19:29:35.822Z,56.70
2019-03-26T19:32:05.682Z,69.97
2019-03-26T19:34:35.650Z,157.60
2019-03-26T19:37:06.231Z,129.20
2019-03-26T19:39:36.199Z,297.98
2019-03-26T19:42:06.072Z,438.20
2019-03-26T19:44:35.996Z,198.60
2019-03-26T19:47:05.883Z,164.97
2019-03-26T19:49:35.810Z,106.85
2019-03-26T19:52:05.959Z,35.25
2019-03-26T19:54:35.884Z,56.95
2019-03-26T19:57:05.771Z,35.13
2019-03-26T19:59:35.710Z,23.47
2019-03-26T20:02:05.640Z,26.65
2019-03-26T20:04:35.564Z,34.03
2019-03-26T20:07:05.454Z,29.20
2019-03-26T20:09:35.355Z,29.40
2019-03-26T20:12:05.193Z,22.45
2019-03-26T20:14:35.112Z,36.93
2019-03-26T20:17:05.351Z,34.38
2019-03-26T20:19:35.250Z,25.62
2019-03-26T20:22:05.094Z,21.05
2019-03-26T20:24:34.993Z,29.80
2019-03-26T20:27:04.844Z,29.67
2019-03-26T20:29:35.134Z,34.13
2019-03-26T20:32:04.980Z,29.23
2019-03-26T20:34:35.184Z,36.33
2019-03-26T20:37:05.060Z,38.28
2019-03-26T20:39:34.895Z,35.03
2019-03-26T20:42:04.803Z,34.83
2019-03-26T20:44:34.636Z,27.15
2019-03-26T20:47:04.527Z,35.55
2019-03-26T20:49:34.381Z,24.40
2019-03-26T20:52:04.690Z,26.85
2019-03-26T20:54:34.570Z,19.65
2019-03-26T20:57:04.985Z,21.93
2019-03-26T20:59:35.635Z,17.20
2019-03-26T21:02:05.537Z,14.68
2019-03-26T21:04:35.395Z,19.70
2019-03-26T21:07:05.303Z,25.02
2019-03-26T21:09:35.148Z,11.50
2019-03-26T21:12:05.033Z,24.32
2019-03-26T21:14:35.670Z,16.23
2019-03-26T21:17:05.907Z,20.68
2019-03-26T21:19:37.304Z,14.80
2019-03-26T21:22:07.198Z,20.40
2019-03-26T21:24:37.042Z,18.25
2019-03-26T21:27:06.938Z,13.22
2019-03-26T21:29:36.787Z,11.20
2019-03-26T21:32:06.657Z,14.18
2019-03-26T21:34:36.567Z,15.80
2019-03-26T21:37:06.486Z,25.43
2019-03-26T21:39:36.653Z,13.25
2019-03-26T21:42:08.458Z,20.60
2019-03-26T21:44:38.371Z,15.58
2019-03-26T21:47:08.220Z,18.92
2019-03-26T21:49:38.136Z,11.08
2019-03-26T21:52:09.560Z,21.27
2019-03-26T21:54:39.162Z,17.60
2019-03-26T21:57:09.050Z,20.27
2019-03-26T21:59:38.908Z,16.12
2019-03-26T22:02:08.758Z,19.35
2019-03-26T22:04:38.694Z,12.65
2019-03-26T22:07:08.539Z,15.48
2019-03-26T22:09:38.403Z,16.93
2019-03-26T22:12:08.258Z,12.70
2019-03-26T22:14:38.520Z,14.80
2019-03-26T22:17:08.428Z,15.55
2019-03-26T22:19:38.544Z,13.62
2019-03-26T22:22:08.979Z,14.87
2019-03-26T22:24:38.815Z,23.07
2019-03-26T22:27:08.728Z,17.92
2019-03-26T22:29:38.566Z,20.72
2019-03-26T22:32:08.462Z,8.38
2019-03-26T22:34:38.291Z,16.12
2019-03-26T22:37:08.159Z,17.07
2019-03-26T22:39:38.041Z,17.12
2019-03-26T22:42:07.933Z,9.95
2019-03-26T22:44:38.208Z,9.93
2019-03-26T22:47:08.043Z,13.48
2019-03-26T22:49:37.954Z,10.85
2019-03-26T22:52:07.801Z,14.55
2019-03-26T22:54:37.698Z,10.32
2019-03-26T22:57:07.557Z,17.07
2019-03-26T22:59:37.417Z,12.35
2019-03-26T23:02:07.291Z,10.88
2019-03-26T23:04:37.134Z,11.93
2019-03-26T23:07:07.056Z,10.75
2019-03-26T23:09:39.033Z,13.13
2019-03-26T23:14:45.172Z,14.45
2019-03-26T23:19:36.518Z,16.32
2019-03-26T23:22:07.739Z,13.93
2019-03-26T23:24:38.855Z,16.42
2019-03-26T23:27:08.717Z,16.55
2019-03-26T23:29:38.668Z,16.17
2019-03-26T23:32:08.497Z,12.23
2019-03-26T23:34:38.418Z,15.68
2019-03-26T23:37:08.259Z,15.28
2019-03-26T23:39:38.162Z,11.63
2019-03-26T23:42:08.415Z,12.03
2019-03-26T23:44:38.717Z,10.75
2019-03-26T23:47:08.567Z,11.15
2019-03-26T23:49:38.469Z,16.95
2019-03-26T23:52:08.309Z,14.95
2019-03-26T23:54:38.207Z,12.35
2019-03-26T23:57:08.080Z,16.95
2019-03-26T23:59:38.425Z,17.00
